Time;durP1;ratioP1;P1;durP2;ratioP2;P2;SDS_P1;SDS_P2;PMS_P1;PMS_P2;Temp;Humidity;BMP_temperature;BMP_pressure;BME280_temperature;BME280_humidity;BME280_pressure;Samples;Min_cycle;Max_cycle;Signal;HPM_P1;HPM_P2
2022/01/13 00:01:36;;;;;;;2.95;0.80;;;;;;;18.86;33.51;101851.16;4231339;28;20039;-43
2022/01/13 00:03:41;;;;;;;4.25;1.30;;;;;;;18.85;33.65;101853.09;4231370;28;20036;-45
2022/01/13 00:05:42;;;;;;;2.13;1.13;;;;;;;18.85;33.73;101852.25;4231097;28;20047;-45
2022/01/13 00:07:43;;;;;;;2.67;0.90;;;;;;;18.85;33.41;101860.56;4229803;28;20086;-43
2022/01/13 00:09:45;;;;;;;1.85;1.08;;;;;;;18.85;33.77;101857.78;4229295;28;20436;-43
2022/01/13 00:11:48;;;;;;;1.55;1.05;;;;;;;18.85;33.40;101857.78;4228366;28;20031;-41
2022/01/13 00:14:10;;;;;;;3.17;1.17;;;;;;;18.84;33.57;101850.56;4229288;28;20073;-43
2022/01/13 00:16:37;;;;;;;2.00;1.00;;;;;;;18.86;33.81;101853.91;4223200;28;20055;-43
2022/01/13 00:18:48;;;;;;;4.25;1.17;;;;;;;18.90;33.66;101847.66;4224268;28;20109;-43
2022/01/13 00:25:16;;;;;;;7.13;1.52;;;;;;;18.91;33.79;101854.03;4214878;28;20446;-47
2022/01/13 00:27:18;;;;;;;3.13;1.08;;;;;;;18.88;33.73;101854.53;4213883;28;20044;-43
2022/01/13 00:29:25;;;;;;;2.60;1.40;;;;;;;18.94;33.83;101853.53;4195966;28;20564;-43
2022/01/13 00:31:31;;;;;;;2.58;1.38;;;;;;;18.98;33.59;101863.06;4214866;28;20044;-43
2022/01/13 00:33:33;;;;;;;3.58;1.20;;;;;;;19.01;33.37;101852.34;4217011;28;20425;-44
2022/01/13 00:35:34;;;;;;;3.40;1.10;;;;;;;19.03;33.80;101854.84;4214563;28;20044;-43
2022/01/13 00:37:37;;;;;;;4.63;1.45;;;;;;;19.06;33.62;101865.47;4215076;28;20040;-42
2022/01/13 00:39:39;;;;;;;2.22;1.08;;;;;;;19.11;33.39;101861.94;4213709;28;20445;-45
2022/01/13 00:41:40;;;;;;;1.70;1.45;;;;;;;19.10;33.54;101852.75;4214093;28;20069;-44
2022/01/13 00:43:45;;;;;;;2.25;1.15;;;;;;;19.16;33.21;101854.56;4215164;28;20372;-43
2022/01/13 00:45:49;;;;;;;2.30;1.20;;;;;;;19.24;33.41;101862.50;4225575;28;20109;-43
2022/01/13 00:47:51;;;;;;;3.85;1.50;;;;;;;19.29;33.44;101854.28;4229445;28;20035;-43
2022/01/13 00:49:52;;;;;;;2.03;1.05;;;;;;;19.33;33.41;101849.03;4230159;28;20097;-44
2022/01/13 00:51:54;;;;;;;3.53;1.50;;;;;;;19.32;33.39;101840.97;4230863;28;20039;-43
2022/01/13 00:54:04;;;;;;;4.07;1.70;;;;;;;19.41;33.00;101845.88;4231340;28;20088;-43
2022/01/13 00:56:05;;;;;;;4.20;1.50;;;;;;;19.47;33.11;101849.59;4229810;28;20475;-43
2022/01/13 00:58:07;;;;;;;2.28;1.30;;;;;;;19.48;32.82;101852.13;4228984;28;20101;-42
2022/01/13 01:00:09;;;;;;;4.10;1.63;;;;;;;19.51;33.19;101856.31;4230331;28;20040;-43
2022/01/13 01:02:10;;;;;;;3.38;1.17;;;;;;;19.54;33.11;101850.28;4229744;28;20111;-42
2022/01/13 01:04:12;;;;;;;1.45;1.10;;;;;;;19.55;32.96;101857.50;4228209;28;20100;-43
2022/01/13 01:06:14;;;;;;;1.70;1.33;;;;;;;19.57;32.91;101849.78;4229143;28;20096;-43
2022/01/13 01:08:18;;;;;;;2.30;1.40;;;;;;;19.58;33.06;101845.91;4230176;28;20089;-43
2022/01/13 01:10:21;;;;;;;4.28;1.27;;;;;;;19.57;33.09;101852.56;4227696;28;20108;-42
2022/01/13 01:12:22;;;;;;;3.42;1.70;;;;;;;19.60;32.99;101845.66;4228062;28;20047;-42
2022/01/13 01:14:28;;;;;;;3.72;1.38;;;;;;;19.61;32.74;101856.56;4230206;28;20183;-43
2022/01/13 01:16:33;;;;;;;2.03;1.50;;;;;;;19.62;33.02;101849.06;4229784;28;20528;-44
2022/01/13 01:20:48;;;;;;;3.10;1.40;;;;;;;19.65;32.77;101845.78;4231110;28;20152;-42
2022/01/13 01:25:19;;;;;;;5.30;1.17;;;;;;;19.66;33.08;101850.25;4232017;28;20028;-41
2022/01/13 01:27:25;;;;;;;2.95;1.70;;;;;;;19.68;32.93;101851.69;4230043;28;20268;-43
2022/01/13 01:29:40;;;;;;;4.60;1.60;;;;;;;19.67;32.94;101850.00;4218351;28;20102;-41
2022/01/13 01:31:48;;;;;;;4.80;1.42;;;;;;;19.65;33.22;101846.63;4230374;28;20055;-42
2022/01/13 01:34:01;;;;;;;2.05;1.33;;;;;;;19.66;33.21;101847.47;4233605;28;20089;-42
2022/01/13 01:36:04;;;;;;;2.38;1.40;;;;;;;19.66;33.16;101853.88;4233666;28;20055;-43
2022/01/13 01:38:06;;;;;;;2.30;1.35;;;;;;;19.65;33.17;101852.16;4233574;28;20043;-42
2022/01/13 01:40:10;;;;;;;3.47;1.40;;;;;;;19.65;33.03;101863.28;4233237;28;20051;-44
2022/01/13 01:42:11;;;;;;;4.07;1.50;;;;;;;19.64;33.05;101861.59;4233576;28;20524;-42
2022/01/13 01:44:19;;;;;;;2.58;1.60;;;;;;;19.64;33.34;101857.97;4233563;28;20040;-43
2022/01/13 01:46:21;;;;;;;5.00;2.72;;;;;;;19.64;32.93;101850.50;4233396;28;20044;-42
2022/01/13 01:48:26;;;;;;;3.20;1.60;;;;;;;19.65;33.20;101856.88;4231385;28;20073;-44
2022/01/13 01:50:34;;;;;;;2.55;1.38;;;;;;;19.64;33.29;101850.50;4231701;28;20089;-46
2022/01/13 01:52:36;;;;;;;3.95;1.48;;;;;;;19.65;33.47;101852.16;4231463;28;20104;-43
2022/01/13 01:54:38;;;;;;;2.70;1.30;;;;;;;19.65;33.31;101841.06;4232248;28;20043;-42
2022/01/13 01:56:41;;;;;;;2.63;1.52;;;;;;;19.64;33.54;101839.38;4232771;28;20043;-42
2022/01/13 01:58:42;;;;;;;3.60;2.05;;;;;;;19.63;33.17;101837.72;4229855;28;20508;-42
2022/01/13 02:00:44;;;;;;;3.28;1.50;;;;;;;19.63;33.49;101826.59;4228241;28;20101;-43
2022/01/13 02:02:46;;;;;;;3.20;2.00;;;;;;;19.62;33.11;101836.03;4233494;27;20043;-43
2022/01/13 02:04:47;;;;;;;2.53;1.60;;;;;;;19.61;33.28;101828.81;4250479;27;20039;-44
2022/01/13 02:06:52;;;;;;;2.75;1.63;;;;;;;19.61;33.20;101837.13;4247064;27;20089;-43
2022/01/13 02:08:56;;;;;;;4.03;2.03;;;;;;;19.57;33.47;101822.03;4233034;28;20047;-43
2022/01/13 02:10:58;;;;;;;3.75;1.83;;;;;;;19.57;33.40;101830.34;4233105;28;20466;-44
2022/01/13 02:13:06;;;;;;;3.45;2.30;;;;;;;19.58;33.73;101834.81;4215420;28;20048;-45
2022/01/13 02:17:21;;;;;;;3.88;1.70;;;;;;;19.59;33.83;101838.44;4226610;28;20031;-43
2022/01/13 02:19:26;;;;;;;2.97;1.67;;;;;;;19.55;33.79;101836.13;4232502;28;20043;-48
2022/01/13 02:21:28;;;;;;;3.17;1.83;;;;;;;19.55;33.82;101832.53;4232731;28;20097;-43
2022/01/13 02:23:38;;;;;;;3.85;1.50;;;;;;;19.54;33.78;101833.63;4232174;28;20040;-43
2022/01/13 02:25:40;;;;;;;4.60;2.33;;;;;;;19.55;33.46;101829.75;4233152;28;20120;-42
2022/01/13 02:27:42;;;;;;;4.45;2.45;;;;;;;19.54;33.66;101823.34;4232641;28;20040;-40
2022/01/13 02:29:44;;;;;;;2.70;1.98;;;;;;;19.55;33.72;101832.53;4232051;28;20044;-42
2022/01/13 02:31:46;;;;;;;3.78;1.98;;;;;;;19.53;33.90;101831.94;4232881;28;20043;-43
2022/01/13 02:33:48;;;;;;;3.15;1.80;;;;;;;19.48;33.64;101817.97;4232398;28;20100;-42
2022/01/13 02:35:49;;;;;;;2.90;1.75;;;;;;;19.48;33.89;101816.03;4232914;28;20089;-42
2022/01/13 02:37:51;;;;;;;3.88;2.10;;;;;;;19.51;33.73;101825.78;4233226;28;20535;-44
2022/01/13 02:39:52;;;;;;;4.75;1.92;;;;;;;19.51;33.74;101823.00;4231443;28;20027;-43
2022/01/13 02:41:58;;;;;;;4.15;1.90;;;;;;;19.52;33.78;101824.72;4226274;28;20147;-43
2022/01/13 02:44:00;;;;;;;4.53;2.10;;;;;;;19.51;33.88;101828.56;4244716;27;20175;-44
2022/01/13 02:46:18;;;;;;;2.67;1.90;;;;;;;19.50;33.54;101827.72;4232170;28;20121;-42
2022/01/13 02:50:24;;;;;;;5.97;2.13;;;;;;;19.49;34.02;101819.66;4233592;28;20027;-44
2022/01/13 02:52:25;;;;;;;3.33;2.08;;;;;;;19.48;33.81;101823.53;4231707;28;20101;-43
2022/01/13 02:54:27;;;;;;;7.03;2.30;;;;;;;19.48;33.88;101817.97;4230181;28;20544;-42
2022/01/13 02:56:28;;;;;;;3.92;1.88;;;;;;;19.48;34.02;101826.31;4232325;28;20096;-42
2022/01/13 02:58:34;;;;;;;5.55;2.25;;;;;;;19.47;33.73;101825.47;4231895;28;20047;-44
2022/01/13 03:00:39;;;;;;;3.65;2.10;;;;;;;19.43;34.08;101815.94;4224714;28;20040;-44
2022/01/13 03:02:47;;;;;;;;;;;;;;;19.39;34.04;101822.25;4215796;28;20137;-44
2022/01/13 03:04:49;;;;;;;4.45;2.13;;;;;;;19.45;34.19;101812.91;4215433;28;19981;-44
2022/01/13 03:06:53;;;;;;;3.45;2.10;;;;;;;19.43;34.35;101818.72;4215280;28;20040;-44
2022/01/13 03:08:57;;;;;;;4.18;2.10;;;;;;;19.40;34.41;101815.59;4215288;28;20093;-42
2022/01/13 03:10:58;;;;;;;6.72;2.70;;;;;;;19.41;34.67;101820.06;4215704;28;20048;-42
2022/01/13 03:13:01;;;;;;;3.83;2.35;;;;;;;19.41;34.91;101815.34;4224568;28;20478;-42
2022/01/13 03:15:02;;;;;;;4.28;2.55;;;;;;;19.40;34.73;101818.38;4232981;28;20020;-43
2022/01/13 03:17:04;;;;;;;5.70;2.38;;;;;;;19.39;35.01;101809.22;4220615;28;20097;-44
2022/01/13 03:19:06;;;;;;;6.70;2.33;;;;;;;19.37;34.97;101800.28;4231496;28;20471;-41
2022/01/13 03:21:08;;;;;;;8.10;2.80;;;;;;;19.38;35.03;101803.88;4226723;28;20093;-43
2022/01/13 03:23:10;;;;;;;4.72;2.72;;;;;;;19.37;35.47;101807.75;4215182;28;20033;-45
2022/01/13 03:25:14;;;;;;;8.05;2.65;;;;;;;19.36;35.49;101804.16;4214776;28;20543;-46
2022/01/13 03:27:20;;;;;;;7.75;3.00;;;;;;;19.33;36.06;101796.31;4213808;28;20109;-44
2022/01/13 03:29:23;;;;;;;4.65;2.38;;;;;;;19.35;36.23;101804.41;4216413;28;20028;-44
2022/01/13 03:31:25;;;;;;;5.70;2.88;;;;;;;19.34;36.54;101805.50;4225730;28;20040;-42
2022/01/13 03:33:27;;;;;;;9.00;2.92;;;;;;;19.35;36.47;101796.09;4231082;28;20031;-44
2022/01/13 03:35:29;;;;;;;3.63;2.30;;;;;;;19.33;36.66;101803.81;4229760;28;20096;-42
2022/01/13 03:37:31;;;;;;;5.57;2.50;;;;;;;19.33;36.93;101803.81;4227405;28;20044;-41
2022/01/13 03:39:35;;;;;;;5.07;2.72;;;;;;;19.32;36.96;101797.41;4230859;28;20031;-43
2022/01/13 03:41:38;;;;;;;6.10;2.70;;;;;;;19.33;37.30;101795.47;4230508;28;20112;-43
2022/01/13 03:43:40;;;;;;;6.10;2.60;;;;;;;19.28;37.43;101777.63;4229677;28;20426;-44
2022/01/13 03:45:43;;;;;;;7.00;2.63;;;;;;;19.32;37.73;101788.25;4229384;28;20177;-42
2022/01/13 03:47:44;;;;;;;6.15;2.78;;;;;;;19.33;37.62;101787.16;4214407;28;20036;-43
2022/01/13 03:49:46;;;;;;;7.53;2.83;;;;;;;19.34;37.91;101794.41;4215088;28;20433;-43
2022/01/13 03:51:50;;;;;;;5.40;3.05;;;;;;;19.34;37.70;101797.19;4225738;28;20040;-41
2022/01/13 03:54:30;;;;;;;4.75;2.63;;;;;;;19.30;37.97;101799.59;4232329;28;20420;-43
2022/01/13 03:56:46;;;;;;;6.35;2.90;;;;;;;19.33;38.12;101793.53;4197897;28;20039;-43
2022/01/13 03:59:18;;;;;;;5.80;2.85;;;;;;;19.33;38.32;101795.47;4230944;28;20368;-44
2022/01/13 04:02:10;;;;;;;4.32;2.80;;;;;;;19.29;38.35;101786.84;4225236;28;20101;-42
2022/01/13 04:04:12;;;;;;;3.95;2.60;;;;;;;19.35;38.71;101784.97;4222066;28;20479;-42
2022/01/13 04:06:16;;;;;;;6.93;3.00;;;;;;;19.34;39.11;101794.41;4220086;28;20491;-42
2022/01/13 04:08:17;;;;;;;7.45;2.83;;;;;;;19.34;39.69;101797.19;4218242;28;20073;-43
2022/01/13 04:10:52;;;;;;;7.03;2.97;;;;;;;19.34;40.37;101795.25;4224244;28;20035;-43
2022/01/13 04:12:54;;;;;;;5.28;2.60;;;;;;;19.40;41.82;101790.63;4220247;28;20036;-42
2022/01/13 04:14:59;;;;;;;6.40;3.05;;;;;;;19.40;41.93;101787.84;4225500;28;20056;-43
2022/01/13 04:17:00;;;;;;;6.07;2.67;;;;;;;19.43;42.79;101781.81;4216864;27;20048;-42
2022/01/13 04:19:07;;;;;;;6.97;2.90;;;;;;;19.45;42.71;101779.59;4219075;28;20061;-42
2022/01/13 04:21:08;;;;;;;7.05;2.90;;;;;;;19.46;42.97;101775.72;4231629;28;20088;-42
2022/01/13 04:23:13;;;;;;;6.53;2.97;;;;;;;19.44;42.65;101778.78;4216394;28;20043;-41
2022/01/13 04:25:21;;;;;;;5.30;2.90;;;;;;;19.45;42.57;101782.38;4227794;28;20044;-42
2022/01/13 04:27:30;;;;;;;6.43;3.13;;;;;;;19.44;42.54;101781.53;4216126;28;20544;-42
2022/01/13 04:29:36;;;;;;;6.35;3.08;;;;;;;19.44;42.34;101777.94;4230555;27;20104;-42
2022/01/13 04:31:43;;;;;;;8.77;2.90;;;;;;;19.42;42.36;101780.09;4218933;28;20036;-42
2022/01/13 04:33:44;;;;;;;4.10;2.53;;;;;;;19.36;42.04;101764.47;4230374;28;20032;-42
2022/01/13 04:35:47;;;;;;;8.35;3.30;;;;;;;19.40;42.07;101760.09;4230078;28;20039;-43
2022/01/13 04:37:51;;;;;;;4.07;2.80;;;;;;;19.38;41.43;101770.59;4231007;28;20035;-42
2022/01/13 04:39:52;;;;;;;7.88;2.60;;;;;;;19.38;41.44;101773.34;4230700;28;20035;-42
2022/01/13 04:41:55;;;;;;;6.05;3.15;;;;;;;19.37;41.43;101760.59;4230982;28;20044;-42
2022/01/13 04:43:56;;;;;;;6.82;2.97;;;;;;;19.37;41.09;101757.81;4230983;28;20039;-43
2022/01/13 04:45:58;;;;;;;5.45;2.75;;;;;;;19.33;40.84;101754.69;4230529;28;20043;-41
2022/01/13 04:47:59;;;;;;;5.55;3.17;;;;;;;19.34;41.00;101763.88;4230357;28;20081;-43
2022/01/13 04:50:01;;;;;;;6.40;3.20;;;;;;;19.33;40.65;101753.84;4230333;28;20039;-44
2022/01/13 04:52:02;;;;;;;7.20;3.05;;;;;;;19.32;40.89;101754.94;4231293;28;20036;-43
2022/01/13 04:54:04;;;;;;;7.85;2.97;;;;;;;19.28;40.63;101758.22;4226155;28;20048;-43
2022/01/13 04:56:11;;;;;;;6.40;2.70;;;;;;;19.28;40.42;101758.22;4216669;28;20036;-46
2022/01/13 04:58:15;;;;;;;6.47;3.38;;;;;;;19.26;40.37;101754.84;4213557;28;20058;-44
2022/01/13 05:00:17;;;;;;;4.18;2.80;;;;;;;19.26;40.19;101760.41;4229115;28;20039;-43
2022/01/13 05:02:18;;;;;;;8.45;3.05;;;;;;;19.25;40.32;101758.72;4230541;28;20138;-42
2022/01/13 05:04:21;;;;;;;5.47;2.70;;;;;;;19.21;39.87;101746.44;4230127;28;20044;-43
2022/01/13 05:06:22;;;;;;;4.13;3.20;;;;;;;19.23;39.91;101730.38;4229669;28;20515;-44
2022/01/13 05:08:24;;;;;;;5.57;3.50;;;;;;;19.22;39.63;101731.47;4228877;28;20039;-42
2022/01/13 05:10:28;;;;;;;8.13;3.22;;;;;;;19.20;39.83;101733.66;4230361;28;20088;-42
2022/01/13 05:12:36;;;;;;;5.80;2.90;;;;;;;19.20;39.86;101727.28;4225285;28;20035;-42
2022/01/13 05:14:37;;;;;;;4.80;3.13;;;;;;;19.18;39.63;101735.00;4217013;28;20047;-42
2022/01/13 05:16:58;;;;;;;5.18;3.13;;;;;;;19.16;39.55;101735.25;4217753;28;20043;-41
2022/01/13 05:21:06;;;;;;;5.10;3.15;;;;;;;19.16;39.45;101742.75;4214981;28;20437;-43
2022/01/13 05:23:11;;;;;;;6.60;3.30;;;;;;;19.08;39.36;101721.78;4213625;28;20036;-42
2022/01/13 05:25:12;;;;;;;4.77;3.03;;;;;;;19.12;39.41;101731.28;4217504;28;20036;-41
2022/01/13 05:27:14;;;;;;;4.60;3.08;;;;;;;19.13;38.94;101732.97;4218848;28;20104;-45
2022/01/13 05:29:19;;;;;;;6.88;3.10;;;;;;;19.11;39.16;101732.41;4220499;28;20040;-43
2022/01/13 05:31:21;;;;;;;6.68;3.40;;;;;;;19.12;39.02;101731.28;4214540;28;20184;-45
2022/01/13 05:33:22;;;;;;;6.57;3.10;;;;;;;19.10;39.03;101729.84;4226800;28;20451;-44
2022/01/13 05:35:25;;;;;;;6.97;3.38;;;;;;;19.09;39.03;101730.94;4230079;28;20048;-43
2022/01/13 05:37:26;;;;;;;5.80;3.22;;;;;;;19.07;38.77;101728.44;4224488;28;20043;-44
2022/01/13 05:39:28;;;;;;;6.95;3.20;;;;;;;19.07;38.73;101733.16;4214470;28;20048;-44
2022/01/13 05:41:31;;;;;;;5.03;3.05;;;;;;;19.01;38.57;101721.09;4213589;28;20039;-43
2022/01/13 05:43:36;;;;;;;6.55;2.97;;;;;;;19.04;38.49;101723.38;4228559;28;20452;-43
2022/01/13 05:45:39;;;;;;;6.20;3.45;;;;;;;19.05;38.48;101730.59;4230070;28;20039;-43
2022/01/13 05:47:42;;;;;;;4.28;2.95;;;;;;;19.02;38.53;101729.19;4230113;28;20043;-43
2022/01/13 05:49:43;;;;;;;6.78;3.10;;;;;;;19.04;38.16;101723.38;4229548;28;20061;-45
2022/01/13 05:51:45;;;;;;;4.90;3.47;;;;;;;19.04;38.24;101728.91;4227906;28;20097;-42
2022/01/13 05:53:46;;;;;;;5.18;2.35;;;;;;;19.04;38.40;101723.38;4230269;28;20483;-43
2022/01/13 05:55:48;;;;;;;7.40;3.22;;;;;;;19.03;38.24;101730.03;4227677;28;20547;-42
2022/01/13 05:57:49;;;;;;;7.57;3.60;;;;;;;19.00;38.12;101722.19;4214537;28;20093;-42
2022/01/13 05:59:51;;;;;;;4.25;2.85;;;;;;;18.99;37.87;101731.59;4222943;28;20044;-42
2022/01/13 06:01:52;;;;;;;6.18;3.00;;;;;;;18.98;38.13;101729.94;4223639;28;20872;-42
2022/01/13 06:03:54;;;;;;;4.90;3.00;;;;;;;18.96;37.89;101730.16;4212871;28;20048;-42
2022/01/13 06:05:55;;;;;;;5.22;3.30;;;;;;;18.95;37.78;101722.94;4217065;28;20028;-42
2022/01/13 06:07:57;;;;;;;4.70;3.20;;;;;;;18.94;38.00;101723.19;4229667;28;20101;-46
2022/01/13 06:10:01;;;;;;;8.18;3.53;;;;;;;18.94;38.05;101717.66;4230332;28;20040;-42
2022/01/13 06:12:03;;;;;;;5.43;3.70;;;;;;;18.92;38.02;101717.91;4230641;28;20097;-43
2022/01/13 06:14:08;;;;;;;6.07;3.30;;;;;;;18.90;37.59;101708.97;4229584;28;20393;-42
2022/01/13 06:16:14;;;;;;;5.35;3.05;;;;;;;18.92;37.80;101717.03;4229628;28;20163;-43
2022/01/13 06:18:16;;;;;;;4.75;2.63;;;;;;;18.92;37.64;101712.34;4224364;28;20089;-44
2022/01/13 06:20:20;;;;;;;6.13;3.40;;;;;;;18.91;37.45;101713.41;4215799;28;20476;-41
2022/01/13 06:22:23;;;;;;;4.93;3.33;;;;;;;18.93;37.70;101710.41;4225673;28;20100;-42
2022/01/13 06:24:24;;;;;;;5.65;3.38;;;;;;;18.94;37.57;101712.09;4233184;28;20043;-44
2022/01/13 06:26:27;;;;;;;4.22;3.05;;;;;;;18.95;37.36;101702.69;4233603;28;20096;-43
2022/01/13 06:28:29;;;;;;;4.97;3.50;;;;;;;18.96;37.16;101715.44;4233320;28;20027;-44
2022/01/13 06:30:30;;;;;;;5.22;3.10;;;;;;;18.96;37.33;101723.78;4233782;28;20036;-44
2022/01/13 06:32:32;;;;;;;6.15;3.75;;;;;;;18.90;37.04;101714.53;4233023;28;20048;-42
2022/01/13 06:34:34;;;;;;;5.07;3.55;;;;;;;18.96;37.19;101727.38;4233169;28;20081;-41
2022/01/13 06:36:35;;;;;;;5.88;3.47;;;;;;;18.94;37.20;101729.56;4232957;28;20051;-41
2022/01/13 06:38:39;;;;;;;5.47;3.20;;;;;;;18.94;36.96;101725.97;4232796;28;20043;-42
2022/01/13 06:40:42;;;;;;;5.18;3.35;;;;;;;18.91;36.85;101735.63;4233752;28;20366;-42
2022/01/13 06:42:43;;;;;;;7.22;3.60;;;;;;;18.93;37.05;101732.59;4233051;28;20474;-42
2022/01/13 06:44:45;;;;;;;6.82;3.50;;;;;;;18.91;36.78;101740.31;4232930;28;20466;-44
2022/01/13 06:46:46;;;;;;;3.97;3.00;;;;;;;18.90;36.84;101747.78;4232962;28;20040;-46
2022/01/13 06:48:48;;;;;;;5.93;3.50;;;;;;;18.89;36.78;101735.03;4232276;28;20100;-43
2022/01/13 06:50:49;;;;;;;5.55;3.47;;;;;;;18.89;37.00;101731.41;4232823;28;20039;-44
2022/01/13 06:52:51;;;;;;;6.82;3.10;;;;;;;18.88;37.00;101732.50;4232724;28;20356;-43
2022/01/13 06:54:52;;;;;;;5.22;3.08;;;;;;;18.87;36.92;101739.13;4232635;28;20036;-43
2022/01/13 06:56:54;;;;;;;4.13;3.15;;;;;;;18.86;36.89;101723.59;4232500;28;20474;-42
2022/01/13 06:58:55;;;;;;;4.30;3.40;;;;;;;18.86;36.77;101731.91;4232206;28;20044;-43
2022/01/13 07:01:05;;;;;;;6.00;3.80;;;;;;;18.82;36.75;101719.63;4233084;28;20023;-43
2022/01/13 07:03:06;;;;;;;6.85;3.72;;;;;;;18.85;36.64;101716.34;4232055;28;20058;-43
2022/01/13 07:05:08;;;;;;;5.78;3.95;;;;;;;18.84;36.44;101717.47;4231557;28;20105;-42
2022/01/13 07:07:10;;;;;;;5.93;3.53;;;;;;;18.84;36.90;101723.00;4227753;28;20044;-41
2022/01/13 07:09:14;;;;;;;6.28;3.72;;;;;;;18.81;36.51;101715.16;4231824;28;20035;-44
2022/01/13 07:11:15;;;;;;;5.28;3.38;;;;;;;18.82;36.56;101719.63;4221463;28;20040;-45
2022/01/13 07:13:16;;;;;;;4.82;3.63;;;;;;;18.82;36.32;101722.41;4227049;28;20047;-42
2022/01/13 07:15:19;;;;;;;6.22;3.58;;;;;;;18.79;36.77;101719.03;4230455;28;20109;-43
2022/01/13 07:17:21;;;;;;;6.72;3.55;;;;;;;18.79;36.76;101716.28;4222913;28;20089;-43
2022/01/13 07:19:22;;;;;;;5.90;3.78;;;;;;;18.79;36.25;101716.28;4219031;28;20044;-43
2022/01/13 07:21:26;;;;;;;6.28;3.75;;;;;;;18.77;36.72;101717.59;4225433;28;20085;-43
2022/01/13 07:23:28;;;;;;;6.47;3.60;;;;;;;18.76;36.31;101721.47;4221197;28;20090;-42
2022/01/13 07:25:29;;;;;;;5.82;3.67;;;;;;;18.75;36.42;101723.41;4215497;28;20044;-43
2022/01/13 07:27:31;;;;;;;5.18;3.60;;;;;;;18.74;36.31;101716.16;4231045;28;20093;-43
2022/01/13 07:29:32;;;;;;;4.93;3.33;;;;;;;18.69;36.14;101702.22;4214442;28;20429;-43
2022/01/13 07:31:35;;;;;;;6.13;3.60;;;;;;;18.72;36.32;101712.78;4225292;28;20039;-43
2022/01/13 07:33:37;;;;;;;7.43;3.78;;;;;;;18.72;36.43;101711.94;4232731;28;20024;-42
2022/01/13 07:35:38;;;;;;;6.15;3.63;;;;;;;18.70;36.12;101712.22;4230097;28;20100;-43
2022/01/13 07:37:40;;;;;;;5.43;3.40;;;;;;;18.71;36.41;101708.34;4231736;28;20040;-44
2022/01/13 07:39:44;;;;;;;5.57;3.67;;;;;;;18.68;36.06;101705.19;4224099;28;20097;-43
2022/01/13 07:41:45;;;;;;;6.47;3.80;;;;;;;18.67;36.08;101701.56;4222282;28;20108;-42
2022/01/13 07:43:53;;;;;;;6.05;4.10;;;;;;;18.67;36.45;101696.03;4231963;28;20080;-42
2022/01/13 07:45:55;;;;;;;7.15;3.80;;;;;;;18.67;36.38;101686.88;4220327;28;20089;-43
2022/01/13 07:47:56;;;;;;;5.50;3.58;;;;;;;18.66;36.42;101691.56;4232409;28;20100;-45
2022/01/13 07:49:58;;;;;;;6.22;3.42;;;;;;;18.66;36.11;101677.72;4220279;28;20032;-44
2022/01/13 07:51:59;;;;;;;5.15;3.60;;;;;;;18.65;35.94;101675.19;4226267;28;20096;-42
2022/01/13 07:54:01;;;;;;;5.55;3.58;;;;;;;18.64;35.93;101679.03;4231453;28;20056;-43
2022/01/13 07:56:02;;;;;;;6.90;3.83;;;;;;;18.62;35.89;101687.63;4227672;28;20054;-43
2022/01/13 07:58:04;;;;;;;6.18;3.92;;;;;;;18.62;35.97;101684.84;4220027;28;20121;-42
2022/01/13 08:00:08;;;;;;;6.60;3.50;;;;;;;18.61;36.15;101683.16;4220371;28;20081;-42
2022/01/13 08:02:10;;;;;;;6.40;3.78;;;;;;;18.59;36.31;101677.00;4230011;28;20401;-43
2022/01/13 08:04:11;;;;;;;6.22;3.90;;;;;;;18.60;36.34;101678.72;4216888;28;20047;-43
2022/01/13 08:06:13;;;;;;;5.03;3.35;;;;;;;18.58;36.24;101674.50;4228051;28;20044;-45
2022/01/13 08:08:18;;;;;;;5.10;3.40;;;;;;;18.59;36.19;101677.00;4228860;28;20101;-44
2022/01/13 08:10:24;;;;;;;6.33;3.83;;;;;;;18.58;35.83;101667.03;4229106;28;20036;-45
2022/01/13 08:12:26;;;;;;;5.30;4.03;;;;;;;18.57;35.84;101656.19;4219650;28;20562;-43
2022/01/13 08:14:28;;;;;;;5.25;3.58;;;;;;;18.55;36.25;101659.19;4230000;28;20120;-43
2022/01/13 08:16:33;;;;;;;6.38;3.85;;;;;;;18.55;36.28;101664.72;4227093;28;20043;-44
2022/01/13 08:20:55;;;;;;;4.72;3.50;;;;;;;18.54;35.79;101658.34;4230533;28;20077;-43
2022/01/13 08:22:57;;;;;;;6.30;3.75;;;;;;;18.49;36.08;101643.56;4230900;28;20482;-46
2022/01/13 08:24:59;;;;;;;4.63;3.60;;;;;;;18.47;35.99;101651.28;4230233;28;20073;-43
2022/01/13 08:27:01;;;;;;;5.25;3.75;;;;;;;18.50;35.92;101653.56;4203053;28;20480;-45
2022/01/13 08:29:05;;;;;;;6.28;3.95;;;;;;;18.47;35.84;101657.69;4214079;28;20036;-42
2022/01/13 08:31:06;;;;;;;5.93;3.78;;;;;;;18.48;36.12;101652.97;4225597;28;20040;-42
2022/01/13 08:33:08;;;;;;;4.68;3.38;;;;;;;18.48;36.05;101655.75;4231031;28;20099;-43
2022/01/13 08:35:10;;;;;;;7.35;3.60;;;;;;;18.46;35.97;101652.34;4230261;28;20039;-42
2022/01/13 08:37:12;;;;;;;5.60;3.40;;;;;;;18.47;35.75;101651.28;4230852;28;20470;-43
2022/01/13 08:39:15;;;;;;;5.18;3.80;;;;;;;18.47;35.67;101651.28;4230086;28;20035;-43
2022/01/13 08:41:17;;;;;;;7.00;3.95;;;;;;;18.46;35.51;101649.59;4231040;28;20104;-42
2022/01/13 08:43:18;;;;;;;6.55;3.97;;;;;;;18.44;35.94;101646.22;4219340;28;20089;-42
2022/01/13 08:45:20;;;;;;;6.75;3.65;;;;;;;18.44;35.91;101646.22;4213299;28;20502;-42
2022/01/13 08:47:21;;;;;;;7.53;4.13;;;;;;;18.43;35.78;101645.41;4214024;28;20532;-41
2022/01/13 08:49:22;;;;;;;6.40;3.72;;;;;;;18.42;36.02;101643.72;4213298;28;20086;-44
2022/01/13 08:51:24;;;;;;;6.13;3.60;;;;;;;18.41;35.65;101641.19;4215316;28;20035;-43
2022/01/13 08:53:25;;;;;;;5.60;3.38;;;;;;;18.40;35.93;101628.41;4230918;28;20035;-42
2022/01/13 08:55:27;;;;;;;5.20;3.85;;;;;;;18.40;35.56;101625.66;4221059;28;20520;-42
2022/01/13 08:57:28;;;;;;;7.53;4.00;;;;;;;18.40;35.69;101628.41;4228394;28;20036;-41
2022/01/13 08:59:30;;;;;;;5.40;3.60;;;;;;;18.39;35.57;101626.75;4230025;28;20077;-44
2022/01/13 09:01:31;;;;;;;5.65;4.13;;;;;;;18.37;35.86;101624.22;4217111;28;20078;-45
2022/01/13 09:03:34;;;;;;;4.97;3.33;;;;;;;18.36;35.60;101613.38;4214558;28;20028;-42
2022/01/13 09:05:37;;;;;;;4.95;3.70;;;;;;;18.35;35.72;101615.31;4214310;28;20433;-42
2022/01/13 09:07:38;;;;;;;6.07;3.70;;;;;;;18.33;35.82;101605.56;4218941;28;20114;-44
2022/01/13 09:09:39;;;;;;;5.53;3.95;;;;;;;18.34;35.93;101613.63;4231190;27;20081;-42
2022/01/13 09:11:42;;;;;;;4.75;3.72;;;;;;;18.35;35.66;101608.91;4230146;28;20040;-41
2022/01/13 09:13:44;;;;;;;5.68;3.85;;;;;;;18.35;35.75;101620.00;4231209;28;20023;-42
2022/01/13 09:15:57;;;;;;;5.22;4.05;;;;;;;18.33;35.63;101605.56;4230293;28;20069;-41
2022/01/13 09:18:07;;;;;;;6.97;4.10;;;;;;;18.31;35.91;101608.56;4212573;28;20032;-43
2022/01/13 09:20:13;;;;;;;6.25;4.03;;;;;;;18.24;35.56;101592.09;4230337;28;20043;-43
2022/01/13 09:22:15;;;;;;;5.70;3.90;;;;;;;18.26;35.86;101598.22;4230197;28;20089;-41
2022/01/13 09:24:18;;;;;;;6.47;3.65;;;;;;;18.31;35.93;101602.19;4230194;28;20035;-44
2022/01/13 09:26:22;;;;;;;5.50;3.80;;;;;;;18.29;35.90;101600.50;4230072;28;20117;-44
2022/01/13 09:28:24;;;;;;;6.63;3.80;;;;;;;18.27;35.56;101610.16;4230545;28;20417;-45
2022/01/13 09:30:26;;;;;;;5.95;3.97;;;;;;;18.25;35.47;101604.88;4230106;28;20036;-41
2022/01/13 09:32:27;;;;;;;4.88;4.13;;;;;;;18.26;35.55;101595.47;4230967;28;20028;-41
2022/01/13 09:34:29;;;;;;;5.90;3.65;;;;;;;18.27;35.81;101607.38;4230342;28;20040;-41
2022/01/13 09:36:31;;;;;;;7.03;3.97;;;;;;;18.25;35.49;101593.78;4229789;28;20048;-41
2022/01/13 09:38:33;;;;;;;3.80;3.05;;;;;;;18.23;35.54;101595.94;4229762;28;20085;-43
2022/01/13 09:40:34;;;;;;;5.25;3.50;;;;;;;18.24;35.55;101603.19;4230928;28;20069;-42
2022/01/13 09:42:40;;;;;;;5.60;4.13;;;;;;;18.23;35.60;101590.41;4230341;28;20035;-43
2022/01/13 09:44:41;;;;;;;5.70;3.33;;;;;;;18.22;35.90;101594.25;4230278;28;20040;-42
2022/01/13 09:46:44;;;;;;;5.13;3.45;;;;;;;18.21;35.54;101592.59;4230905;28;20035;-41
2022/01/13 09:48:46;;;;;;;6.38;3.92;;;;;;;18.21;35.43;101592.59;4229909;28;20039;-42
2022/01/13 09:50:48;;;;;;;5.82;3.58;;;;;;;18.14;35.47;101580.81;4230926;28;20077;-42
2022/01/13 09:52:50;;;;;;;5.15;3.75;;;;;;;18.17;35.86;101585.84;4229872;28;20043;-42